createdAt,value
2023-02-07T00:00:59.992Z,102031.68
2023-02-07T00:02:03.258Z,102027.20
2023-02-07T00:03:06.475Z,102037.02
2023-02-07T00:04:09.490Z,102027.29
2023-02-07T00:05:13.333Z,102036.16
2023-02-07T00:06:19.774Z,102033.57
2023-02-07T00:07:22.715Z,102035.45
2023-02-07T00:08:25.764Z,102029.27
2023-02-07T00:09:28.991Z,102024.98
2023-02-07T00:10:32.640Z,102024.32
2023-02-07T00:11:38.600Z,102029.03
2023-02-07T00:12:41.999Z,102031.90
2023-02-07T00:13:45.553Z,102036.45
2023-02-07T00:14:48.524Z,102033.97
2023-02-07T00:15:51.638Z,102027.78
2023-02-07T00:16:54.830Z,102024.25
2023-02-07T00:17:58.036Z,102022.53
2023-02-07T00:19:01.181Z,102028.80
2023-02-07T00:20:05.246Z,102021.86
2023-02-07T00:21:11.712Z,102013.95
2023-02-07T00:22:14.803Z,102016.02
2023-02-07T00:23:17.860Z,102016.37
2023-02-07T00:24:21.014Z,102018.53
2023-02-07T00:25:24.186Z,102023.37
2023-02-07T00:26:27.675Z,102029.80
2023-02-07T00:27:30.763Z,102023.73
2023-02-07T00:28:34.345Z,102036.27
2023-02-07T00:29:38.131Z,102031.02
2023-02-07T00:30:42.188Z,102034.55
2023-02-07T00:31:45.368Z,102030.08
2023-02-07T00:32:49.689Z,102028.19
2023-02-07T00:33:56.011Z,102025.45
2023-02-07T00:34:59.193Z,102034.39
2023-02-07T00:36:05.002Z,102024.83
2023-02-07T00:37:09.299Z,102023.37
2023-02-07T00:38:12.371Z,102030.77
2023-02-07T00:39:16.738Z,102028.20
2023-02-07T00:40:19.884Z,102027.34
2023-02-07T00:41:23.113Z,102030.88
2023-02-07T00:42:26.270Z,102030.77
2023-02-07T00:43:30.411Z,102031.62
2023-02-07T00:44:33.416Z,102038.75
2023-02-07T00:45:36.981Z,102026.56
2023-02-07T00:46:40.357Z,102032.16
2023-02-07T00:47:43.532Z,102038.69
2023-02-07T00:48:46.614Z,102039.02
2023-02-07T00:49:49.754Z,102054.47
2023-02-07T00:50:52.835Z,102046.06
2023-02-07T00:51:55.972Z,102050.78
2023-02-07T00:52:59.027Z,102051.00
2023-02-07T00:54:02.521Z,102056.58
2023-02-07T00:55:05.996Z,102057.70
2023-02-07T00:56:09.563Z,102054.34
2023-02-07T00:57:12.731Z,102060.69
2023-02-07T00:58:16.088Z,102057.23
2023-02-07T00:59:19.266Z,102051.91
2023-02-07T01:00:22.413Z,102058.95
2023-02-07T01:01:27.033Z,102067.80
2023-02-07T01:02:31.163Z,102062.55
2023-02-07T01:03:34.276Z,102058.20
2023-02-07T01:04:37.480Z,102054.75
2023-02-07T01:05:41.047Z,102053.81
2023-02-07T01:06:44.199Z,102052.88
2023-02-07T01:07:47.357Z,102052.70
2023-02-07T01:08:50.510Z,102050.03
2023-02-07T01:09:53.674Z,102039.47
2023-02-07T01:10:57.028Z,102050.11
2023-02-07T01:12:00.206Z,102044.89
2023-02-07T01:13:03.156Z,102049.25
2023-02-07T01:14:07.309Z,102044.78
2023-02-07T01:15:10.520Z,102047.37
2023-02-07T01:16:26.534Z,102042.05
2023-02-07T01:17:29.719Z,102040.18
2023-02-07T01:18:32.756Z,102040.33
2023-02-07T01:19:35.779Z,102042.30
2023-02-07T01:20:39.063Z,102048.63
2023-02-07T01:21:42.130Z,102046.16
2023-02-07T01:22:45.434Z,102040.91
2023-02-07T01:23:48.590Z,102038.17
2023-02-07T01:24:54.468Z,102041.52
2023-02-07T01:25:57.631Z,102039.64
2023-02-07T01:27:01.526Z,102037.77
2023-02-07T01:28:04.844Z,102046.59
2023-02-07T01:29:08.381Z,102036.91
2023-02-07T01:30:12.854Z,102045.75
2023-02-07T01:31:16.193Z,102043.23
2023-02-07T01:32:19.235Z,102052.34
2023-02-07T01:33:22.799Z,102053.45
2023-02-07T01:34:25.998Z,102050.86
2023-02-07T01:35:29.080Z,102042.02
2023-02-07T01:36:32.264Z,102050.79
2023-02-07T01:37:35.541Z,102056.97
2023-02-07T01:38:38.688Z,102049.82
2023-02-07T01:39:42.350Z,102048.02
2023-02-07T01:40:45.436Z,102047.02
2023-02-07T01:41:48.595Z,102044.17
2023-02-07T01:42:51.749Z,102045.83
2023-02-07T01:43:58.476Z,102049.25
2023-02-07T01:45:05.124Z,102043.85
2023-02-07T01:46:08.729Z,102051.83
2023-02-07T01:47:15.198Z,102057.16
2023-02-07T01:48:28.486Z,102050.97
2023-02-07T01:49:35.228Z,102056.30
2023-02-07T01:50:40.700Z,102049.17
2023-02-07T01:51:50.241Z,102063.34
2023-02-07T01:52:54.136Z,102064.28
2023-02-07T01:54:00.745Z,102057.23
2023-02-07T01:55:08.132Z,102062.55
2023-02-07T01:56:29.425Z,102060.07
2023-02-07T01:57:22.409Z,102063.91
2023-02-07T01:58:27.492Z,102056.87
2023-02-07T01:59:33.730Z,102060.47
2023-02-07T02:00:37.325Z,102057.91
2023-02-07T02:01:41.650Z,102063.30
2023-02-07T02:02:44.922Z,102060.82
2023-02-07T02:03:51.961Z,102056.33
2023-02-07T02:04:55.374Z,102066.03
2023-02-07T02:05:58.743Z,102066.97
2023-02-07T02:07:02.101Z,102059.95
2023-02-07T02:08:24.505Z,102066.14
2023-02-07T02:09:28.993Z,102064.31
2023-02-07T02:10:44.637Z,102064.41
2023-02-07T02:12:03.367Z,102064.41
2023-02-07T02:13:27.743Z,102073.41
2023-02-07T02:14:54.129Z,102066.67
2023-02-07T02:16:03.877Z,102078.42
2023-02-07T02:17:22.414Z,102075.94
2023-02-07T02:19:02.210Z,102075.20
2023-02-07T02:20:29.692Z,102070.06
2023-02-07T02:21:54.363Z,102074.83
2023-02-07T02:23:22.210Z,102069.75
2023-02-07T02:24:40.590Z,102072.55
2023-02-07T02:25:57.216Z,102076.24
2023-02-07T02:27:20.324Z,102075.62
2023-02-07T02:28:27.047Z,102079.21
2023-02-07T02:30:05.330Z,102078.34
2023-02-07T02:31:28.576Z,102068.64
2023-02-07T02:32:56.390Z,102075.06
2023-02-07T02:34:15.400Z,102076.92
2023-02-07T02:35:23.937Z,102076.86
2023-02-07T02:36:33.290Z,102072.33
2023-02-07T02:37:58.676Z,102073.09
2023-02-07T02:39:11.288Z,102075.62
2023-02-07T02:40:53.277Z,102065.91
2023-02-07T02:42:24.970Z,102072.16
2023-02-07T02:43:37.429Z,102073.89
2023-02-07T02:45:02.699Z,102068.64
2023-02-07T02:46:15.283Z,102073.09
2023-02-07T02:47:20.559Z,102077.48
2023-02-07T02:48:24.436Z,102077.41
2023-02-07T02:49:30.000Z,102072.89
2023-02-07T02:50:34.882Z,102082.49
2023-02-07T02:51:38.049Z,102077.97
2023-02-07T02:52:50.745Z,102080.45
2023-02-07T02:53:56.973Z,102079.45
2023-02-07T02:55:01.954Z,102076.56
2023-02-07T02:56:14.168Z,102083.44
2023-02-07T02:57:38.977Z,102091.27
2023-02-07T02:59:02.288Z,102075.38
2023-02-07T03:00:26.817Z,102079.84
2023-02-07T03:01:52.752Z,102080.77
2023-02-07T03:03:14.799Z,102079.22
2023-02-07T03:04:30.802Z,102071.72
2023-02-07T03:05:43.351Z,102081.94
2023-02-07T03:07:01.842Z,102078.66
2023-02-07T03:08:08.773Z,102078.89
2023-02-07T03:09:39.513Z,102071.15
2023-02-07T03:11:01.484Z,102084.67
2023-02-07T03:12:17.110Z,102074.28
2023-02-07T03:13:29.600Z,102078.00
2023-02-07T03:14:45.518Z,102079.26
2023-02-07T03:16:20.889Z,102087.59
2023-02-07T03:17:30.585Z,102087.02
2023-02-07T03:18:49.153Z,102087.25
2023-02-07T03:20:07.694Z,102084.75
2023-02-07T03:21:23.471Z,102090.20
2023-02-07T03:22:29.747Z,102090.42
2023-02-07T03:23:33.938Z,102091.45
2023-02-07T03:24:40.575Z,102102.07
2023-02-07T03:25:44.897Z,102094.97
2023-02-07T03:26:49.974Z,102098.48
2023-02-07T03:27:55.704Z,102102.87
2023-02-07T03:29:00.371Z,102104.50
2023-02-07T03:30:07.195Z,102102.61
2023-02-07T03:31:13.813Z,102104.18
2023-02-07T03:32:19.661Z,102101.52
2023-02-07T03:33:25.346Z,102103.41
2023-02-07T03:34:37.721Z,102100.88
2023-02-07T03:35:44.455Z,102107.38
2023-02-07T03:36:57.178Z,102106.03
2023-02-07T03:38:02.667Z,102104.52
2023-02-07T03:39:06.020Z,102113.42
2023-02-07T03:40:11.007Z,102113.58
2023-02-07T03:41:20.329Z,102114.63
2023-02-07T03:42:32.734Z,102115.65
2023-02-07T03:43:38.683Z,102111.42
2023-02-07T03:44:42.677Z,102116.73
2023-02-07T03:45:45.750Z,102114.91
2023-02-07T03:46:50.460Z,102113.12
2023-02-07T03:47:53.510Z,102116.63
2023-02-07T03:48:56.587Z,102118.36
2023-02-07T03:49:59.666Z,102122.81
2023-02-07T03:51:02.817Z,102114.84
2023-02-07T03:52:06.042Z,102119.38
2023-02-07T03:53:09.223Z,102120.16
2023-02-07T03:54:12.641Z,102115.70
2023-02-07T03:55:15.842Z,102118.36
2023-02-07T03:56:19.554Z,102119.16
2023-02-07T03:57:22.624Z,102118.08
2023-02-07T03:58:25.779Z,102112.62
2023-02-07T03:59:29.237Z,102115.20
2023-02-07T04:00:32.626Z,102116.94
2023-02-07T04:02:47.766Z,102119.73
2023-02-07T04:03:50.919Z,102121.04
2023-02-07T04:04:54.204Z,102122.67
2023-02-07T04:05:57.155Z,102120.02
2023-02-07T04:07:00.207Z,102126.13
2023-02-07T04:08:03.647Z,102126.06
2023-02-07T04:09:07.120Z,102124.18
2023-02-07T04:10:11.584Z,102116.91
2023-02-07T04:11:14.831Z,102115.83
2023-02-07T04:12:17.912Z,102121.14
2023-02-07T04:13:20.997Z,102128.18
2023-02-07T04:14:24.245Z,102128.18
2023-02-07T04:15:27.325Z,102122.77
2023-02-07T04:16:30.335Z,102128.02
2023-02-07T04:17:33.454Z,102124.44
2023-02-07T04:18:36.406Z,102138.64
2023-02-07T04:19:39.446Z,102131.70
2023-02-07T04:20:42.523Z,102136.15
2023-02-07T04:21:45.610Z,102139.80
2023-02-07T04:22:48.774Z,102145.27
2023-02-07T04:23:51.823Z,102134.90
2023-02-07T04:24:54.882Z,102134.03
2023-02-07T04:25:58.163Z,102135.89
2023-02-07T04:27:01.313Z,102136.88
2023-02-07T04:28:04.408Z,102134.31
2023-02-07T04:29:07.413Z,102134.38
2023-02-07T04:30:11.580Z,102135.46
2023-02-07T04:31:14.540Z,102144.48
2023-02-07T04:32:17.706Z,102146.36
2023-02-07T04:33:21.021Z,102139.48
2023-02-07T04:34:24.121Z,102137.09
2023-02-07T04:35:27.196Z,102140.03
2023-02-07T04:36:30.763Z,102134.07
2023-02-07T04:37:33.828Z,102137.00
2023-02-07T04:38:36.867Z,102136.25
2023-02-07T04:39:39.830Z,102142.58
2023-02-07T04:40:42.785Z,102146.16
2023-02-07T04:41:45.938Z,102144.42
2023-02-07T04:42:48.991Z,102151.61
2023-02-07T04:43:52.251Z,102150.80
2023-02-07T04:44:55.335Z,102157.19
2023-02-07T04:45:58.449Z,102154.59
2023-02-07T04:47:01.491Z,102159.09
2023-02-07T04:48:04.920Z,102153.78
2023-02-07T04:49:08.008Z,102165.34
2023-02-07T04:50:11.814Z,102163.62
2023-02-07T04:51:15.606Z,102163.67
2023-02-07T04:52:18.597Z,102169.84
2023-02-07T04:53:21.857Z,102167.85
2023-02-07T04:54:24.942Z,102165.92
2023-02-07T04:55:28.027Z,102167.70
2023-02-07T04:56:31.094Z,102164.28
2023-02-07T04:57:34.241Z,102158.11
2023-02-07T04:58:37.210Z,102163.41
2023-02-07T04:59:40.383Z,102159.74
2023-02-07T05:00:43.445Z,102164.12
2023-02-07T05:01:46.649Z,102168.57
2023-02-07T05:02:49.735Z,102164.99
2023-02-07T05:03:52.796Z,102165.80
2023-02-07T05:04:55.874Z,102170.18
2023-02-07T05:05:58.923Z,102166.58
2023-02-07T05:07:01.888Z,102170.03
2023-02-07T05:08:05.170Z,102166.39
2023-02-07T05:09:08.248Z,102166.30
2023-02-07T05:10:12.028Z,102153.19
2023-02-07T05:11:15.078Z,102164.02
2023-02-07T05:12:18.179Z,102167.70
2023-02-07T05:13:21.430Z,102166.93
2023-02-07T05:14:24.564Z,102170.45
2023-02-07T05:15:28.023Z,102160.70
2023-02-07T05:16:31.210Z,102165.14
2023-02-07T05:17:34.466Z,102159.09
2023-02-07T05:18:37.561Z,102160.22
2023-02-07T05:19:40.635Z,102167.45
2023-02-07T05:20:44.123Z,102162.20
2023-02-07T05:21:47.193Z,102159.65
2023-02-07T05:22:50.383Z,102158.90
2023-02-07T05:23:53.525Z,102161.61
2023-02-07T05:24:56.596Z,102163.42
2023-02-07T05:25:59.558Z,102172.22
2023-02-07T05:27:02.773Z,102168.64
2023-02-07T05:28:05.878Z,102158.18
2023-02-07T05:29:09.026Z,102165.42
2023-02-07T05:30:13.119Z,102163.73
2023-02-07T05:31:16.515Z,102150.69
2023-02-07T05:32:38.965Z,102165.84
2023-02-07T05:33:42.112Z,102160.69
2023-02-07T05:34:45.178Z,102166.19
2023-02-07T05:35:48.222Z,102170.67
2023-02-07T05:36:51.355Z,102167.16
2023-02-07T05:37:54.397Z,102178.63
2023-02-07T05:38:57.436Z,102158.23
2023-02-07T05:40:00.397Z,102167.77
2023-02-07T05:41:03.457Z,102166.80
2023-02-07T05:42:06.419Z,102161.41
2023-02-07T05:43:10.694Z,102161.41
2023-02-07T05:44:13.850Z,102159.61
2023-02-07T05:45:16.911Z,102157.83
2023-02-07T05:46:20.155Z,102158.75
2023-02-07T05:47:23.252Z,102154.41
2023-02-07T05:48:26.312Z,102159.70
2023-02-07T05:49:29.364Z,102164.86
2023-02-07T05:50:32.394Z,102163.80
2023-02-07T05:51:41.624Z,102161.81
2023-02-07T05:52:45.084Z,102167.92
2023-02-07T05:53:48.222Z,102161.61
2023-02-07T05:54:51.413Z,102163.48
2023-02-07T05:55:54.459Z,102160.77
2023-02-07T05:56:57.515Z,102155.47
2023-02-07T05:58:00.705Z,102162.47
2023-02-07T05:59:03.778Z,102163.28
2023-02-07T06:00:09.146Z,102157.92
2023-02-07T06:01:14.611Z,102170.38
2023-02-07T06:02:17.758Z,102153.73
2023-02-07T06:03:20.888Z,102153.73
2023-02-07T06:04:23.934Z,102151.14
2023-02-07T06:05:28.657Z,102155.58
2023-02-07T06:06:31.649Z,102157.38
2023-02-07T06:07:34.804Z,102160.11
2023-02-07T06:08:37.847Z,102164.61
2023-02-07T06:09:41.036Z,102162.88
2023-02-07T06:10:44.213Z,102158.50
2023-02-07T06:11:47.174Z,102154.26
2023-02-07T06:12:50.239Z,102155.18
2023-02-07T06:13:53.287Z,102160.48
2023-02-07T06:14:56.248Z,102162.27
2023-02-07T06:15:59.241Z,102171.14
2023-02-07T06:17:02.343Z,102166.70
2023-02-07T06:18:05.605Z,102172.87
2023-02-07T06:19:10.662Z,102164.86
2023-02-07T06:20:14.862Z,102172.81
2023-02-07T06:21:18.028Z,102173.80
2023-02-07T06:22:21.205Z,102166.85
2023-02-07T06:23:24.165Z,102166.91
2023-02-07T06:24:27.448Z,102185.52
2023-02-07T06:25:30.668Z,102178.52
2023-02-07T06:26:33.936Z,102183.82
2023-02-07T06:27:38.390Z,102180.36
2023-02-07T06:28:41.388Z,102175.98
2023-02-07T06:29:44.475Z,102168.08
2023-02-07T06:30:47.747Z,102181.33
2023-02-07T06:31:50.867Z,102174.19
2023-02-07T06:32:53.934Z,102174.14
2023-02-07T06:33:57.009Z,102174.91
2023-02-07T06:35:00.101Z,102174.08
2023-02-07T06:36:03.484Z,102174.00
2023-02-07T06:37:06.571Z,102188.88
2023-02-07T06:38:09.640Z,102183.22
2023-02-07T06:39:13.025Z,102180.38
2023-02-07T06:40:17.026Z,102180.27
2023-02-07T06:41:20.321Z,102166.91
2023-02-07T06:42:23.381Z,102179.19
2023-02-07T06:43:26.545Z,102180.86
2023-02-07T06:44:29.644Z,102182.45
2023-02-07T06:45:32.768Z,102179.59
2023-02-07T06:46:35.952Z,102179.59
2023-02-07T06:47:39.266Z,102183.77
2023-02-07T06:48:42.450Z,102193.25
2023-02-07T06:49:45.622Z,102194.72
2023-02-07T06:50:51.424Z,102199.67
2023-02-07T06:51:54.788Z,102196.69
2023-02-07T06:53:01.434Z,102207.05
2023-02-07T06:54:06.422Z,102211.27
2023-02-07T06:55:09.631Z,102203.04
2023-02-07T06:56:12.995Z,102200.23
2023-02-07T06:57:16.188Z,102201.75
2023-02-07T06:58:19.337Z,102202.43
2023-02-07T06:59:22.515Z,102205.73
2023-02-07T07:00:25.743Z,102206.35
2023-02-07T07:01:28.951Z,102206.20
2023-02-07T07:02:32.144Z,102206.20
2023-02-07T07:03:35.276Z,102212.44
2023-02-07T07:04:38.235Z,102213.30
2023-02-07T07:05:41.871Z,102215.95
2023-02-07T07:06:44.738Z,102223.00
2023-02-07T07:07:48.703Z,102221.92
2023-02-07T07:08:51.911Z,102226.95
2023-02-07T07:09:54.951Z,102223.95
2023-02-07T07:10:58.013Z,102216.47
2023-02-07T07:12:00.999Z,102218.78
2023-02-07T07:13:04.184Z,102219.30
2023-02-07T07:14:07.238Z,102214.45
2023-02-07T07:15:10.312Z,102211.50
2023-02-07T07:16:13.730Z,102216.66
2023-02-07T07:17:16.756Z,102211.34
2023-02-07T07:18:19.939Z,102208.78
2023-02-07T07:19:23.011Z,102206.35
2023-02-07T07:20:26.054Z,102207.41
2023-02-07T07:21:29.023Z,102201.61
2023-02-07T07:22:32.120Z,102205.33
2023-02-07T07:23:35.478Z,102208.14
2023-02-07T07:24:38.572Z,102210.87
2023-02-07T07:25:41.654Z,102206.42
2023-02-07T07:26:49.872Z,102206.42
2023-02-07T07:27:49.878Z,102205.48
2023-02-07T07:28:54.721Z,102205.48
2023-02-07T07:29:57.799Z,102206.36
2023-02-07T07:31:06.537Z,102207.06
2023-02-07T07:32:19.910Z,102210.64
2023-02-07T07:33:17.555Z,102214.97
2023-02-07T07:34:20.585Z,102204.17
2023-02-07T07:35:24.558Z,102207.57
2023-02-07T07:36:27.949Z,102210.94
2023-02-07T07:37:31.444Z,102212.59
2023-02-07T07:38:34.901Z,102219.64
2023-02-07T07:39:38.063Z,102219.64
2023-02-07T07:40:41.430Z,102218.84
2023-02-07T07:41:44.862Z,102217.11
2023-02-07T07:42:48.508Z,102227.91
2023-02-07T07:43:54.572Z,102224.39
2023-02-07T07:44:57.768Z,102235.02
2023-02-07T07:46:01.758Z,102231.34
2023-02-07T07:47:04.987Z,102228.61
2023-02-07T07:48:08.278Z,102234.73
2023-02-07T07:49:11.559Z,102233.70
2023-02-07T07:50:14.962Z,102230.82
2023-02-07T07:51:18.226Z,102239.44
2023-02-07T07:52:21.397Z,102242.59
2023-02-07T07:53:24.706Z,102237.12
2023-02-07T07:54:27.730Z,102235.19
2023-02-07T07:55:30.840Z,102239.35
2023-02-07T07:56:34.919Z,102235.59
2023-02-07T07:57:38.173Z,102237.16
2023-02-07T07:58:41.245Z,102237.89
2023-02-07T07:59:44.422Z,102238.66
2023-02-07T08:00:47.748Z,102235.93
2023-02-07T08:01:51.501Z,102239.59
2023-02-07T08:02:54.579Z,102239.75
2023-02-07T08:03:57.893Z,102242.41
2023-02-07T08:05:01.538Z,102251.33
2023-02-07T08:06:05.627Z,102251.20
2023-02-07T08:07:08.804Z,102247.37
2023-02-07T08:08:12.093Z,102249.80
2023-02-07T08:09:15.199Z,102253.16
2023-02-07T08:10:18.407Z,102248.56
2023-02-07T08:11:21.497Z,102253.72
2023-02-07T08:12:24.715Z,102259.67
2023-02-07T08:13:32.329Z,102259.36
2023-02-07T08:14:33.144Z,102260.86
2023-02-07T08:15:36.499Z,102253.66
2023-02-07T08:16:39.659Z,102253.73
2023-02-07T08:17:42.730Z,102251.21
2023-02-07T08:18:46.789Z,102260.30
2023-02-07T08:19:50.022Z,102263.03
2023-02-07T08:20:53.093Z,102248.72
2023-02-07T08:21:56.189Z,102257.40
2023-02-07T08:22:59.354Z,102255.36
2023-02-07T08:24:02.652Z,102255.92
2023-02-07T08:25:06.691Z,102251.14
2023-02-07T08:26:11.097Z,102257.09
2023-02-07T08:27:14.266Z,102258.44
2023-02-07T08:28:18.694Z,102256.47
2023-02-07T08:29:21.937Z,102250.97
2023-02-07T08:30:25.403Z,102252.55
2023-02-07T08:31:28.636Z,102252.45
2023-02-07T08:32:31.964Z,102267.42
2023-02-07T08:33:35.040Z,102263.66
2023-02-07T08:34:38.232Z,102261.45
2023-02-07T08:35:41.495Z,102267.16
2023-02-07T08:36:44.805Z,102270.25
2023-02-07T08:37:47.876Z,102261.00
2023-02-07T08:38:51.475Z,102258.94
2023-02-07T08:39:55.303Z,102256.13
2023-02-07T08:40:58.557Z,102254.33
2023-02-07T08:42:02.753Z,102246.22
2023-02-07T08:43:07.631Z,102242.95
2023-02-07T08:44:10.701Z,102248.53
2023-02-07T08:45:15.487Z,102246.20
2023-02-07T08:46:18.950Z,102237.44
2023-02-07T08:47:22.103Z,102242.84
2023-02-07T08:48:25.136Z,102244.65
2023-02-07T08:49:28.439Z,102239.57
2023-02-07T08:50:31.745Z,102230.17
2023-02-07T08:51:34.987Z,102241.16
2023-02-07T08:52:38.322Z,102234.42
2023-02-07T08:53:41.414Z,102241.80
2023-02-07T08:54:44.497Z,102235.85
2023-02-07T08:55:47.881Z,102233.43
2023-02-07T08:56:51.448Z,102238.14
2023-02-07T08:57:54.661Z,102229.46
2023-02-07T08:58:57.912Z,102230.53
2023-02-07T09:00:01.448Z,102224.52
2023-02-07T09:01:06.615Z,102224.70
2023-02-07T09:02:11.962Z,102221.38
2023-02-07T09:03:15.334Z,102228.60
2023-02-07T09:04:18.411Z,102227.73
2023-02-07T09:05:21.604Z,102224.14
2023-02-07T09:06:25.614Z,102208.00
2023-02-07T09:07:28.686Z,102214.19
2023-02-07T09:08:31.639Z,102215.05
2023-02-07T09:09:34.790Z,102213.33
2023-02-07T09:10:38.706Z,102216.70
2023-02-07T09:11:42.218Z,102221.06
2023-02-07T09:12:45.403Z,102218.41
2023-02-07T09:13:48.814Z,102224.52
2023-02-07T09:14:52.050Z,102216.47
2023-02-07T09:15:58.248Z,102217.40
2023-02-07T09:17:01.470Z,102212.14
2023-02-07T09:18:04.626Z,102216.70
2023-02-07T09:19:08.031Z,102215.91
2023-02-07T09:20:12.306Z,102210.66
2023-02-07T09:21:15.789Z,102215.91
2023-02-07T09:22:18.821Z,102205.95
2023-02-07T09:23:23.417Z,102211.14
2023-02-07T09:24:26.822Z,102206.58
2023-02-07T09:25:30.008Z,102208.23
2023-02-07T09:26:34.761Z,102215.11
2023-02-07T09:27:37.891Z,102216.77
2023-02-07T09:28:41.052Z,102231.81
2023-02-07T09:29:44.222Z,102225.62
2023-02-07T09:30:48.401Z,102220.51
2023-02-07T09:31:51.928Z,102214.42
2023-02-07T09:32:57.686Z,102223.34
2023-02-07T09:34:02.125Z,102224.28
2023-02-07T09:35:07.061Z,102218.95
2023-02-07T09:36:25.196Z,102230.33
2023-02-07T09:37:28.787Z,102233.67
2023-02-07T09:38:32.903Z,102226.48
2023-02-07T09:39:38.426Z,102224.66
2023-02-07T09:40:43.151Z,102224.66
2023-02-07T09:42:21.616Z,102228.11
2023-02-07T09:43:29.491Z,102237.83
2023-02-07T09:44:57.886Z,102227.00
2023-02-07T09:46:05.453Z,102225.27
2023-02-07T09:47:23.046Z,102217.38
2023-02-07T09:48:32.644Z,102220.05
2023-02-07T09:49:39.489Z,102225.20
2023-02-07T09:50:46.235Z,102211.88
2023-02-07T09:51:50.611Z,102218.86
2023-02-07T09:52:57.151Z,102212.67
2023-02-07T09:54:03.835Z,102222.39
2023-02-07T09:55:22.906Z,102217.06
2023-02-07T09:56:28.646Z,102206.48
2023-02-07T09:57:41.525Z,102207.42
2023-02-07T09:58:55.224Z,102207.42
2023-02-07T10:00:04.948Z,102208.20
2023-02-07T10:01:23.522Z,102205.37
2023-02-07T10:02:36.178Z,102205.22
2023-02-07T10:03:45.872Z,102212.09
2023-02-07T10:04:51.469Z,102206.52
2023-02-07T10:06:17.888Z,102204.54
2023-02-07T10:07:12.761Z,102209.65
2023-02-07T10:08:18.462Z,102213.78
2023-02-07T10:09:40.386Z,102207.27
2023-02-07T10:10:46.944Z,102210.53
2023-02-07T10:12:02.565Z,102217.41
2023-02-07T10:13:26.164Z,102212.08
2023-02-07T10:14:56.890Z,102210.36
2023-02-07T10:16:01.591Z,102213.09
2023-02-07T10:17:16.475Z,102210.61
2023-02-07T10:18:29.714Z,102205.46
2023-02-07T10:19:42.628Z,102211.73
2023-02-07T10:20:55.577Z,102218.86
2023-02-07T10:22:11.028Z,102220.59
2023-02-07T10:23:29.841Z,102222.28
2023-02-07T10:24:58.144Z,102219.55
2023-02-07T10:31:05.025Z,102217.64
2023-02-07T10:32:17.533Z,102215.70
2023-02-07T10:33:24.313Z,102216.74
2023-02-07T10:34:39.843Z,102215.88
2023-02-07T10:35:45.681Z,102214.84
2023-02-07T10:36:51.824Z,102217.42
2023-02-07T10:37:58.422Z,102223.44
2023-02-07T10:39:09.447Z,102221.56
2023-02-07T10:40:13.973Z,102216.16
2023-02-07T10:41:23.702Z,102215.05
2023-02-07T10:42:28.758Z,102218.33
2023-02-07T10:43:34.088Z,102216.27
2023-02-07T10:44:37.100Z,102224.02
2023-02-07T10:45:41.995Z,102214.82
2023-02-07T10:48:48.517Z,102221.80
2023-02-07T10:49:55.377Z,102212.61
2023-02-07T10:51:02.270Z,102217.94
2023-02-07T10:52:14.984Z,102202.81
2023-02-07T10:53:49.094Z,102207.17
2023-02-07T10:54:55.816Z,102204.61
2023-02-07T10:55:59.011Z,102202.03
2023-02-07T10:57:03.051Z,102211.07
2023-02-07T10:58:21.252Z,102201.34
2023-02-07T10:59:30.558Z,102206.67
2023-02-07T11:00:34.334Z,102206.56
2023-02-07T11:01:39.356Z,102210.88
2023-02-07T11:02:54.340Z,102207.17
2023-02-07T11:03:58.393Z,102206.08
2023-02-07T11:05:16.969Z,102204.09
2023-02-07T14:01:33.057Z,102410.55
2023-02-07T14:02:45.198Z,102408.84
2023-02-07T14:05:32.769Z,102413.79
2023-02-07T14:06:42.003Z,102411.59
2023-02-07T14:07:54.920Z,102409.70
2023-02-07T14:09:01.637Z,102417.56
2023-02-07T14:10:06.187Z,102421.02
2023-02-07T14:11:21.735Z,102416.45
2023-02-07T14:12:40.240Z,102416.38
2023-02-07T14:13:43.610Z,102418.88
2023-02-07T14:15:00.622Z,102418.74
2023-02-07T14:16:01.569Z,102416.84
2023-02-07T14:17:07.474Z,102417.64
2023-02-07T14:18:40.174Z,102428.99
2023-02-07T14:19:48.168Z,102420.92
2023-02-07T14:21:00.807Z,102422.66
2023-02-07T14:22:31.721Z,102428.85
2023-02-07T14:23:48.589Z,102425.15
2023-02-07T14:25:07.152Z,102432.21
2023-02-07T14:26:39.909Z,102428.05
2023-02-07T14:27:52.637Z,102433.39
2023-02-07T14:30:16.637Z,102434.88
2023-02-07T14:31:23.259Z,102450.55
2023-02-07T14:32:41.640Z,102445.22
2023-02-07T14:33:48.265Z,102448.75
2023-02-07T14:35:03.836Z,102447.89
2023-02-07T14:36:16.814Z,102453.22
2023-02-07T14:37:23.347Z,102450.48
2023-02-07T14:38:39.241Z,102455.81
2023-02-07T14:39:42.311Z,102455.75
2023-02-07T14:40:54.414Z,102452.28
2023-02-07T14:42:03.007Z,102451.34
2023-02-07T14:43:09.527Z,102452.22
2023-02-07T14:44:28.291Z,102462.71
2023-02-07T14:45:34.682Z,102455.58
2023-02-07T14:46:50.691Z,102465.30
2023-02-07T14:47:53.750Z,102463.50
2023-02-07T14:49:25.540Z,102468.91
2023-02-07T14:50:30.092Z,102472.44
2023-02-07T14:51:54.919Z,102471.57
2023-02-07T14:53:00.000Z,102478.70
2023-02-07T14:54:09.440Z,102477.84
2023-02-07T14:55:21.900Z,102483.27
2023-02-07T14:56:44.194Z,102479.80
2023-02-07T14:58:02.767Z,102487.87
2023-02-07T14:59:08.202Z,102489.67
2023-02-07T15:00:15.892Z,102479.17
2023-02-07T15:01:20.861Z,102488.03
2023-02-07T15:02:42.446Z,102488.03
2023-02-07T15:03:45.646Z,102488.91
2023-02-07T15:04:48.788Z,102492.50
2023-02-07T15:05:55.273Z,102497.83
2023-02-07T15:06:59.400Z,102503.16
2023-02-07T15:08:18.359Z,102503.96
2023-02-07T15:09:27.432Z,102509.19
2023-02-07T15:10:33.861Z,102501.20
2023-02-07T15:11:36.997Z,102502.99
2023-02-07T15:12:43.118Z,102511.86
2023-02-07T15:13:49.163Z,102518.05
2023-02-07T15:14:56.455Z,102515.39
2023-02-07T15:16:18.247Z,102516.32
2023-02-07T15:17:24.597Z,102516.32
2023-02-07T15:18:31.524Z,102526.12
2023-02-07T15:19:37.478Z,102524.31
2023-02-07T15:20:41.259Z,102526.98
2023-02-07T15:21:49.087Z,102531.31
2023-02-07T15:22:55.047Z,102527.78
2023-02-07T15:24:04.755Z,102536.64
2023-02-07T15:25:11.481Z,102534.91
2023-02-07T15:26:18.400Z,102528.78
2023-02-07T15:27:27.660Z,102535.08
2023-02-07T15:28:31.873Z,102529.75
2023-02-07T15:29:37.485Z,102544.77
2023-02-07T15:30:41.243Z,102530.52
2023-02-07T15:31:44.812Z,102538.51
2023-02-07T15:32:48.202Z,102538.44
2023-02-07T15:33:54.850Z,102549.04
2023-02-07T15:35:00.545Z,102551.70
2023-02-07T15:36:09.185Z,102551.54
2023-02-07T15:37:22.589Z,102546.14
2023-02-07T15:38:27.490Z,102556.80
2023-02-07T15:39:30.700Z,102555.07
2023-02-07T15:40:33.928Z,102552.41
2023-02-07T15:41:37.113Z,102563.00
2023-02-07T15:42:57.835Z,102555.00
2023-02-07T15:44:04.372Z,102562.94
2023-02-07T15:45:19.550Z,102569.20
2023-02-07T15:46:15.355Z,102575.53